Time;durP1;ratioP1;P1;durP2;ratioP2;P2;SDS_P1;SDS_P2;PMS_P1;PMS_P2;Temp;Humidity;BMP_temperature;BMP_pressure;BME280_temperature;BME280_humidity;BME280_pressure;Samples;Min_cycle;Max_cycle;Signal;HPM_P1;HPM_P2
2023/01/12 00:01:33;;;;;;;4.30;1.90;;;;;;;;;;5009378;28;20206;-65
2023/01/12 00:04:01;;;;;;;3.67;2.10;;;;;;;;;;5007210;28;20272;-65
2023/01/12 00:06:31;;;;;;;2.53;1.57;;;;;;;;;;5023346;28;20778;-65
2023/01/12 00:08:58;;;;;;;5.00;1.83;;;;;;;;;;5004767;28;20293;-64
2023/01/12 00:11:26;;;;;;;2.27;1.67;;;;;;;;;;5004068;28;21195;-63
2023/01/12 00:13:53;;;;;;;3.30;1.87;;;;;;;;;;5005403;28;20278;-64
2023/01/12 00:16:36;;;;;;;4.73;1.77;;;;;;;;;;5007841;28;20199;-65
2023/01/12 00:19:12;;;;;;;4.30;1.80;;;;;;;;;;4993660;28;20299;-64
2023/01/12 00:22:24;;;;;;;2.90;1.70;;;;;;;;;;5014752;28;20207;-64
2023/01/12 00:24:33;;;;;;;3.07;1.83;;;;;;;;;;4995364;28;20263;-63
2023/01/12 00:27:03;;;;;;;3.03;1.73;;;;;;;;;;4994163;28;20218;-65
2023/01/12 00:29:30;;;;;;;4.13;1.80;;;;;;;;;;4997393;28;20306;-65
2023/01/12 00:31:59;;;;;;;3.77;1.50;;;;;;;;;;5020403;28;20268;-63
2023/01/12 00:34:27;;;;;;;3.60;1.80;;;;;;;;;;5033314;28;20236;-64
2023/01/12 00:36:56;;;;;;;3.33;1.70;;;;;;;;;;5016881;28;20209;-64
2023/01/12 00:39:23;;;;;;;4.37;1.80;;;;;;;;;;5020497;28;20203;-64
2023/01/12 00:47:23;;;;;;;1.93;1.73;;;;;;;;;;5028221;28;20203;-64
2023/01/12 00:49:50;;;;;;;4.83;1.50;;;;;;;;;;5025992;28;20210;-65
2023/01/12 00:52:18;;;;;;;4.20;2.00;;;;;;;;;;5011678;28;20207;-63
2023/01/12 00:55:01;;;;;;;3.70;1.80;;;;;;;;;;5007243;28;20429;-64
2023/01/12 00:57:28;;;;;;;3.30;1.90;;;;;;;;;;5000855;28;20250;-64
2023/01/12 00:59:58;;;;;;;3.73;2.10;;;;;;;;;;5009568;28;20210;-63
2023/01/12 01:02:26;;;;;;;7.27;1.93;;;;;;;;;;5006312;28;20203;-64
2023/01/12 01:04:54;;;;;;;5.53;2.30;;;;;;;;;;5013056;28;20232;-63
2023/01/12 01:07:21;;;;;;;5.90;2.27;;;;;;;;;;5006573;28;20229;-65
2023/01/12 01:09:49;;;;;;;3.20;1.77;;;;;;;;;;5017996;28;20219;-66
2023/01/12 01:12:17;;;;;;;5.60;2.13;;;;;;;;;;5039569;28;20213;-63
2023/01/12 01:14:44;;;;;;;2.40;2.00;;;;;;;;;;5023083;28;20332;-64
2023/01/12 01:17:12;;;;;;;6.00;2.10;;;;;;;;;;5026360;28;20215;-63
2023/01/12 01:19:39;;;;;;;6.40;2.00;;;;;;;;;;5036101;28;20269;-64
2023/01/12 01:22:06;;;;;;;5.77;2.30;;;;;;;;;;5010921;28;20234;-63
2023/01/12 01:24:33;;;;;;;3.90;1.90;;;;;;;;;;5007002;28;20318;-63
2023/01/12 01:27:01;;;;;;;6.83;2.20;;;;;;;;;;5019730;28;20218;-63
2023/01/12 01:29:28;;;;;;;5.43;2.40;;;;;;;;;;5008850;28;20289;-63
2023/01/12 01:31:56;;;;;;;2.80;2.03;;;;;;;;;;5003345;28;20294;-63
2023/01/12 01:34:23;;;;;;;4.50;2.50;;;;;;;;;;5001237;28;20745;-62
2023/01/12 01:36:50;;;;;;;8.70;2.87;;;;;;;;;;5006903;28;20203;-62
2023/01/12 01:39:18;;;;;;;4.80;1.93;;;;;;;;;;5004669;28;20684;-64
2023/01/12 01:41:46;;;;;;;5.70;2.37;;;;;;;;;;5003222;28;20255;-66
2023/01/12 01:44:29;;;;;;;7.37;2.60;;;;;;;;;;5017974;28;20262;-65
2023/01/12 01:47:03;;;;;;;7.50;2.57;;;;;;;;;;5007396;28;20301;-63
2023/01/12 01:49:40;;;;;;;4.93;2.20;;;;;;;;;;4997582;28;20713;-64
2023/01/12 01:52:17;;;;;;;5.83;2.10;;;;;;;;;;4996938;28;20244;-63
2023/01/12 01:54:47;;;;;;;8.43;2.63;;;;;;;;;;4996812;28;21204;-64
2023/01/12 01:57:15;;;;;;;6.83;2.40;;;;;;;;;;4999902;28;20223;-64
2023/01/12 01:59:46;;;;;;;6.20;2.17;;;;;;;;;;4997720;28;20964;-65
2023/01/12 02:02:14;;;;;;;11.50;2.27;;;;;;;;;;4996456;28;20215;-65
2023/01/12 02:04:41;;;;;;;4.50;2.00;;;;;;;;;;4999567;28;20238;-64
2023/01/12 02:07:09;;;;;;;7.47;2.27;;;;;;;;;;4996605;28;20214;-64
2023/01/12 02:09:37;;;;;;;7.10;2.13;;;;;;;;;;5003755;28;20212;-65
2023/01/12 02:17:54;;;;;;;5.67;2.37;;;;;;;;;;5000196;28;20745;-64
2023/01/12 02:20:25;;;;;;;5.30;1.87;;;;;;;;;;4999702;28;20669;-64
2023/01/12 02:22:58;;;;;;;8.30;2.40;;;;;;;;;;5006103;28;20215;-65
2023/01/12 02:26:04;;;;;;;8.37;1.93;;;;;;;;;;5013575;28;20813;-63
2023/01/12 02:28:34;;;;;;;5.53;2.20;;;;;;;;;;4916254;29;20299;-64
2023/01/12 02:31:18;;;;;;;7.47;2.40;;;;;;;;;;4906730;28;20214;-63
2023/01/12 02:33:58;;;;;;;3.53;1.87;;;;;;;;;;4967110;28;20223;-63
2023/01/12 02:36:32;;;;;;;8.70;2.23;;;;;;;;;;5009614;28;20210;-65
2023/01/12 02:39:11;;;;;;;6.50;2.13;;;;;;;;;;4999076;28;20210;-63
2023/01/12 02:45:02;;;;;;;6.13;2.00;;;;;;;;;;5000758;28;20352;-64
2023/01/12 02:47:48;;;;;;;9.77;2.50;;;;;;;;;;5000984;28;20365;-62
2023/01/12 02:50:29;;;;;;;6.53;2.40;;;;;;;;;;5020876;28;20231;-64
2023/01/12 02:53:01;;;;;;;3.30;2.10;;;;;;;;;;5008290;28;20262;-63
2023/01/12 02:55:30;;;;;;;10.23;2.50;;;;;;;;;;5003736;28;20258;-65
2023/01/12 02:57:58;;;;;;;7.17;2.40;;;;;;;;;;5010875;28;20265;-65
2023/01/12 03:00:26;;;;;;;7.77;2.50;;;;;;;;;;5003434;28;20276;-64
2023/01/12 03:02:53;;;;;;;5.23;2.17;;;;;;;;;;5002317;28;20679;-64
2023/01/12 03:05:20;;;;;;;8.63;2.13;;;;;;;;;;5017958;28;20736;-64
2023/01/12 03:07:50;;;;;;;6.13;2.20;;;;;;;;;;5005857;28;20328;-64
2023/01/12 03:10:30;;;;;;;7.27;2.30;;;;;;;;;;5002568;28;20304;-64
2023/01/12 03:12:58;;;;;;;8.40;2.30;;;;;;;;;;5029265;28;20242;-64
2023/01/12 03:15:27;;;;;;;8.63;2.90;;;;;;;;;;5028152;28;20262;-64
2023/01/12 03:17:59;;;;;;;5.37;1.93;;;;;;;;;;5024447;28;20245;-65
2023/01/12 03:20:28;;;;;;;6.23;2.67;;;;;;;;;;5024364;28;20625;-64
2023/01/12 03:23:06;;;;;;;6.67;2.77;;;;;;;;;;5013652;28;20227;-63
2023/01/12 03:25:34;;;;;;;8.13;2.20;;;;;;;;;;5028152;28;20261;-63
2023/01/12 03:28:04;;;;;;;6.37;2.03;;;;;;;;;;5022459;28;20617;-65
2023/01/12 03:30:35;;;;;;;7.87;1.97;;;;;;;;;;5004548;28;20246;-64
2023/01/12 03:33:03;;;;;;;8.43;2.60;;;;;;;;;;5003729;28;20318;-64
2023/01/12 03:35:33;;;;;;;10.13;2.60;;;;;;;;;;5009684;28;20364;-64
2023/01/12 03:38:21;;;;;;;7.30;2.73;;;;;;;;;;4996134;28;20213;-64
2023/01/12 03:40:51;;;;;;;8.97;2.80;;;;;;;;;;4967775;28;20230;-64
2023/01/12 03:43:26;;;;;;;4.83;2.83;;;;;;;;;;5001422;28;20227;-64
2023/01/12 03:46:05;;;;;;;5.70;2.17;;;;;;;;;;4993321;28;20341;-63
2023/01/12 03:48:43;;;;;;;11.47;2.47;;;;;;;;;;4992418;28;20217;-64
2023/01/12 03:51:13;;;;;;;7.57;2.23;;;;;;;;;;4991165;28;20222;-64
2023/01/12 03:53:42;;;;;;;8.20;2.33;;;;;;;;;;5000127;28;20206;-64
2023/01/12 03:56:12;;;;;;;5.73;2.07;;;;;;;;;;5002939;28;20247;-64
2023/01/12 03:58:39;;;;;;;6.23;2.10;;;;;;;;;;5002820;28;20214;-64
2023/01/12 04:01:07;;;;;;;9.13;2.30;;;;;;;;;;4996865;28;20205;-65
2023/01/12 04:03:34;;;;;;;12.07;3.43;;;;;;;;;;5015079;28;20243;-64
2023/01/12 04:06:02;;;;;;;6.73;2.20;;;;;;;;;;5003980;28;20241;-65
2023/01/12 04:08:30;;;;;;;5.67;2.20;;;;;;;;;;5008508;28;20639;-66
2023/01/12 04:10:57;;;;;;;11.50;2.53;;;;;;;;;;4998213;28;20204;-65
2023/01/12 04:13:25;;;;;;;5.07;2.40;;;;;;;;;;5008875;28;20289;-65
2023/01/12 04:15:53;;;;;;;9.60;2.73;;;;;;;;;;5000727;28;20234;-65
2023/01/12 04:18:21;;;;;;;6.43;2.37;;;;;;;;;;5005459;28;20670;-63
2023/01/12 04:20:48;;;;;;;12.63;2.40;;;;;;;;;;5009975;28;20231;-64
2023/01/12 04:23:15;;;;;;;6.77;2.23;;;;;;;;;;5010215;28;20214;-64
2023/01/12 04:25:48;;;;;;;6.57;2.00;;;;;;;;;;5013019;28;20430;-66
2023/01/12 04:28:16;;;;;;;6.70;2.33;;;;;;;;;;5015206;28;20203;-65
2023/01/12 04:30:43;;;;;;;10.30;2.60;;;;;;;;;;5011696;28;20312;-63
2023/01/12 04:33:11;;;;;;;5.03;2.37;;;;;;;;;;5020298;28;20210;-64
2023/01/12 04:35:38;;;;;;;8.97;2.00;;;;;;;;;;5018185;28;20781;-65
2023/01/12 04:38:06;;;;;;;10.67;2.53;;;;;;;;;;5018471;28;20257;-64
2023/01/12 04:40:34;;;;;;;8.67;3.67;;;;;;;;;;5019511;28;20261;-65
2023/01/12 04:43:06;;;;;;;12.47;3.07;;;;;;;;;;5017320;28;20460;-65
2023/01/12 04:45:36;;;;;;;10.63;3.00;;;;;;;;;;5028565;28;20241;-63
2023/01/12 04:48:09;;;;;;;5.83;2.30;;;;;;;;;;5009929;28;20348;-63
2023/01/12 04:50:38;;;;;;;9.87;3.53;;;;;;;;;;5003217;28;20212;-63
2023/01/12 04:53:06;;;;;;;13.13;4.13;;;;;;;;;;5017905;28;20243;-63
2023/01/12 04:55:38;;;;;;;7.77;3.43;;;;;;;;;;5009449;28;20258;-63
2023/01/12 04:58:06;;;;;;;11.03;2.70;;;;;;;;;;5011135;28;20211;-62
2023/01/12 05:00:33;;;;;;;13.57;2.90;;;;;;;;;;5007496;28;20309;-62
2023/01/12 05:03:01;;;;;;;8.83;3.20;;;;;;;;;;5010206;28;20213;-63
2023/01/12 05:05:32;;;;;;;10.50;3.17;;;;;;;;;;5003917;28;20255;-65
2023/01/12 05:10:50;;;;;;;9.30;2.80;;;;;;;;;;5012361;28;20206;-64
2023/01/12 05:13:17;;;;;;;11.33;2.60;;;;;;;;;;5025217;28;20198;-64
2023/01/12 05:15:46;;;;;;;5.00;2.70;;;;;;;;;;5021836;28;20230;-64
2023/01/12 05:18:14;;;;;;;9.00;2.67;;;;;;;;;;5026956;28;20663;-65
2023/01/12 05:20:41;;;;;;;9.30;2.80;;;;;;;;;;5025593;28;20265;-65
2023/01/12 05:23:09;;;;;;;12.00;2.67;;;;;;;;;;5004487;28;20206;-65
2023/01/12 05:25:36;;;;;;;11.93;2.87;;;;;;;;;;5016081;28;20368;-64
2023/01/12 05:28:03;;;;;;;6.60;3.40;;;;;;;;;;5018937;28;20215;-64
2023/01/12 05:30:32;;;;;;;8.53;2.90;;;;;;;;;;5024312;28;20239;-65
2023/01/12 05:32:59;;;;;;;8.93;5.00;;;;;;;;;;5024005;28;20203;-65
2023/01/12 05:35:27;;;;;;;7.40;3.73;;;;;;;;;;5023828;28;20235;-64
2023/01/12 05:37:55;;;;;;;8.07;3.63;;;;;;;;;;5004918;28;20301;-64
2023/01/12 05:40:23;;;;;;;4.30;2.57;;;;;;;;;;5005618;28;20202;-65
2023/01/12 05:45:37;;;;;;;9.87;3.70;;;;;;;;;;5002373;28;20266;-65
2023/01/12 05:48:05;;;;;;;6.80;2.13;;;;;;;;;;5007128;28;20210;-64
2023/01/12 05:50:32;;;;;;;10.10;2.20;;;;;;;;;;5006451;28;23324;-65
2023/01/12 05:53:00;;;;;;;9.17;2.50;;;;;;;;;;5005320;28;21416;-65
2023/01/12 05:55:27;;;;;;;7.40;2.10;;;;;;;;;;5001122;28;20357;-64
2023/01/12 05:57:58;;;;;;;7.10;2.23;;;;;;;;;;4993824;28;20203;-64
2023/01/12 06:00:26;;;;;;;11.93;2.50;;;;;;;;;;4998785;28;20686;-65
2023/01/12 06:02:53;;;;;;;6.47;2.40;;;;;;;;;;5010948;28;20211;-63
2023/01/12 06:05:20;;;;;;;12.47;2.43;;;;;;;;;;4999146;28;20231;-63
2023/01/12 06:07:48;;;;;;;5.30;2.37;;;;;;;;;;5005875;28;20215;-65
2023/01/12 06:10:15;;;;;;;6.90;1.97;;;;;;;;;;5004271;28;20210;-62
2023/01/12 06:15:31;;;;;;;6.33;2.17;;;;;;;;;;4995851;28;20365;-65
2023/01/12 06:17:59;;;;;;;6.17;2.20;;;;;;;;;;4997082;28;20207;-64
2023/01/12 06:20:26;;;;;;;6.60;1.77;;;;;;;;;;4994964;28;20242;-63
2023/01/12 06:22:54;;;;;;;8.77;2.23;;;;;;;;;;4997262;28;27486;-64
2023/01/12 06:25:21;;;;;;;3.37;2.03;;;;;;;;;;5003875;28;20280;-64
2023/01/12 06:27:49;;;;;;;6.70;1.97;;;;;;;;;;5017339;28;21143;-64
2023/01/12 06:30:16;;;;;;;3.37;1.97;;;;;;;;;;5005025;28;20324;-63
2023/01/12 06:32:43;;;;;;;6.80;2.00;;;;;;;;;;4995624;28;20273;-67
2023/01/12 06:35:11;;;;;;;6.10;3.33;;;;;;;;;;5001532;28;20246;-65
2023/01/12 06:37:46;;;;;;;9.27;3.10;;;;;;;;;;5002057;28;20299;-65
2023/01/12 06:40:14;;;;;;;5.23;2.53;;;;;;;;;;5003422;28;20306;-65
2023/01/12 06:42:41;;;;;;;7.67;3.27;;;;;;;;;;5010688;28;20668;-64
2023/01/12 06:45:09;;;;;;;14.33;3.33;;;;;;;;;;5001244;28;20786;-66
2023/01/12 06:47:57;;;;;;;8.80;2.40;;;;;;;;;;4998199;28;20207;-65
2023/01/12 06:50:25;;;;;;;6.87;2.50;;;;;;;;;;5000824;28;20223;-63
2023/01/12 06:52:54;;;;;;;5.13;3.40;;;;;;;;;;5002824;28;20256;-66
2023/01/12 06:55:21;;;;;;;6.20;1.87;;;;;;;;;;5001168;28;20324;-65
2023/01/12 06:57:49;;;;;;;6.73;4.27;;;;;;;;;;4998377;28;20692;-63
2023/01/12 07:00:17;;;;;;;6.40;4.20;;;;;;;;;;5000660;28;20289;-66
2023/01/12 07:02:44;;;;;;;8.63;3.23;;;;;;;;;;5000221;28;20365;-63
2023/01/12 07:05:11;;;;;;;5.00;2.10;;;;;;;;;;5006301;28;20773;-64
2023/01/12 07:07:39;;;;;;;8.23;2.30;;;;;;;;;;5007585;28;20203;-65
2023/01/12 07:10:07;;;;;;;6.43;2.20;;;;;;;;;;5009151;28;20218;-63
2023/01/12 07:12:34;;;;;;;6.60;2.40;;;;;;;;;;5022482;28;20651;-63
2023/01/12 07:15:02;;;;;;;7.57;2.30;;;;;;;;;;5021126;28;20285;-64
2023/01/12 07:17:30;;;;;;;6.53;2.50;;;;;;;;;;5022748;28;20202;-62
2023/01/12 07:19:57;;;;;;;6.63;2.60;;;;;;;;;;5023311;28;20235;-63
2023/01/12 07:22:26;;;;;;;8.73;2.53;;;;;;;;;;5015960;28;20234;-65
2023/01/12 07:24:53;;;;;;;4.20;2.23;;;;;;;;;;5012642;28;20687;-64
2023/01/12 07:27:23;;;;;;;4.30;2.03;;;;;;;;;;5013408;28;20203;-64
2023/01/12 07:29:51;;;;;;;5.83;2.30;;;;;;;;;;5024411;28;20203;-64
2023/01/12 07:32:18;;;;;;;5.97;2.60;;;;;;;;;;5003453;28;21076;-64
2023/01/12 07:34:46;;;;;;;3.63;1.87;;;;;;;;;;5007152;28;20330;-64
2023/01/12 07:37:13;;;;;;;3.87;1.90;;;;;;;;;;5001676;28;20226;-64
2023/01/12 07:39:41;;;;;;;8.70;2.60;;;;;;;;;;5012005;28;20203;-64
2023/01/12 07:42:24;;;;;;;7.13;2.17;;;;;;;;;;5002773;28;20198;-64
2023/01/12 07:44:51;;;;;;;6.77;2.40;;;;;;;;;;5014474;28;20284;-64
2023/01/12 07:47:19;;;;;;;5.07;2.20;;;;;;;;;;5004607;28;20211;-64
2023/01/12 07:49:46;;;;;;;4.90;1.80;;;;;;;;;;4999179;28;20211;-64
2023/01/12 07:52:14;;;;;;;9.27;2.33;;;;;;;;;;5015458;28;20230;-64
2023/01/12 07:54:41;;;;;;;4.77;1.80;;;;;;;;;;5001761;28;20230;-65
2023/01/12 07:57:10;;;;;;;8.30;2.00;;;;;;;;;;4998432;28;20858;-64
2023/01/12 07:59:38;;;;;;;5.00;2.10;;;;;;;;;;5012863;28;20215;-64
2023/01/12 08:02:06;;;;;;;5.90;1.90;;;;;;;;;;4998247;28;20215;-65
2023/01/12 08:04:34;;;;;;;9.20;1.90;;;;;;;;;;4994935;28;20235;-64
2023/01/12 08:07:02;;;;;;;6.03;2.10;;;;;;;;;;4999910;28;20247;-64
2023/01/12 08:09:29;;;;;;;6.33;1.93;;;;;;;;;;4991630;28;20683;-64
2023/01/12 08:11:56;;;;;;;10.53;2.23;;;;;;;;;;4998433;28;20289;-64
2023/01/12 08:14:29;;;;;;;6.63;2.00;;;;;;;;;;5011116;28;20244;-65
2023/01/12 08:17:00;;;;;;;8.07;2.10;;;;;;;;;;5016033;28;20693;-64
2023/01/12 08:19:37;;;;;;;7.67;1.93;;;;;;;;;;5003114;28;20202;-65
2023/01/12 08:22:07;;;;;;;7.53;2.33;;;;;;;;;;5004960;28;20202;-63
2023/01/12 08:24:36;;;;;;;5.00;1.70;;;;;;;;;;5003579;28;20313;-65
2023/01/12 08:27:05;;;;;;;5.30;1.97;;;;;;;;;;4994766;28;20242;-65
2023/01/12 08:29:38;;;;;;;5.10;1.77;;;;;;;;;;5010189;28;20315;-64
2023/01/12 08:32:06;;;;;;;6.57;2.10;;;;;;;;;;5006335;28;20551;-63
2023/01/12 08:34:43;;;;;;;6.70;2.00;;;;;;;;;;5004505;28;20333;-63
2023/01/12 08:37:12;;;;;;;6.50;1.87;;;;;;;;;;5007973;28;20234;-63
2023/01/12 08:39:39;;;;;;;5.30;1.70;;;;;;;;;;5012381;28;20242;-64
2023/01/12 08:42:07;;;;;;;4.23;1.70;;;;;;;;;;5004844;28;20210;-65
2023/01/12 08:44:35;;;;;;;5.30;1.80;;;;;;;;;;4999084;28;20258;-63
2023/01/12 08:47:03;;;;;;;12.87;2.63;;;;;;;;;;4999573;28;20216;-63
2023/01/12 08:49:31;;;;;;;4.07;1.70;;;;;;;;;;5001460;28;20269;-62
2023/01/12 08:51:59;;;;;;;4.37;2.17;;;;;;;;;;5004521;28;20210;-66
2023/01/12 08:54:26;;;;;;;7.83;2.07;;;;;;;;;;5015739;28;20226;-63
2023/01/12 08:56:54;;;;;;;7.73;1.83;;;;;;;;;;5020207;28;20238;-62
2023/01/12 08:59:21;;;;;;;6.33;1.87;;;;;;;;;;5004328;28;20281;-62
2023/01/12 09:01:49;;;;;;;7.93;1.67;;;;;;;;;;5003927;28;20203;-63
2023/01/12 09:04:16;;;;;;;5.60;2.10;;;;;;;;;;5008067;28;20295;-62
2023/01/12 09:06:45;;;;;;;3.93;2.00;;;;;;;;;;4998003;28;21300;-63
2023/01/12 09:09:14;;;;;;;4.43;1.77;;;;;;;;;;5007535;28;20715;-65
2023/01/12 09:11:42;;;;;;;3.90;1.47;;;;;;;;;;5030094;28;20837;-62
2023/01/12 09:14:13;;;;;;;5.73;2.30;;;;;;;;;;5020943;28;20473;-62
2023/01/12 09:16:41;;;;;;;6.10;1.93;;;;;;;;;;5026676;28;20227;-64
2023/01/12 09:19:09;;;;;;;4.83;1.80;;;;;;;;;;5020797;28;20207;-63
2023/01/12 09:21:38;;;;;;;2.53;1.63;;;;;;;;;;5021688;28;20653;-64
2023/01/12 09:24:06;;;;;;;2.80;1.57;;;;;;;;;;5007372;28;20293;-62
2023/01/12 09:26:36;;;;;;;2.80;1.60;;;;;;;;;;5017151;28;20250;-63
2023/01/12 09:29:04;;;;;;;5.87;1.60;;;;;;;;;;5020561;28;20278;-62
2023/01/12 09:31:31;;;;;;;4.00;1.60;;;;;;;;;;5036178;28;20242;-63
2023/01/12 09:33:59;;;;;;;3.17;1.60;;;;;;;;;;5013535;28;20345;-63
2023/01/12 09:36:28;;;;;;;2.67;1.50;;;;;;;;;;5007151;28;20235;-62
2023/01/12 09:38:55;;;;;;;3.63;1.47;;;;;;;;;;5003538;28;20290;-62
2023/01/12 09:47:35;;;;;;;2.97;1.50;;;;;;;;;;5001374;28;20213;-62
2023/01/12 09:50:14;;;;;;;4.33;1.57;;;;;;;;;;5005000;28;20301;-63
2023/01/12 09:52:51;;;;;;;4.13;1.70;;;;;;;;;;5001035;28;20238;-63
2023/01/12 09:55:20;;;;;;;3.33;1.50;;;;;;;;;;5004767;28;20256;-64
2023/01/12 09:57:47;;;;;;;6.03;1.73;;;;;;;;;;5004508;28;20199;-65
2023/01/12 10:00:16;;;;;;;4.20;1.73;;;;;;;;;;5003388;28;21190;-64
2023/01/12 10:02:46;;;;;;;4.63;1.47;;;;;;;;;;5013686;28;20204;-64
2023/01/12 10:05:40;;;;;;;3.50;1.50;;;;;;;;;;5003165;28;20235;-64
2023/01/12 10:08:22;;;;;;;4.73;1.70;;;;;;;;;;5013663;28;20238;-66
2023/01/12 10:10:58;;;;;;;4.57;1.57;;;;;;;;;;5016304;28;20227;-66
2023/01/12 10:13:27;;;;;;;3.77;1.60;;;;;;;;;;5038768;28;20201;-64
2023/01/12 10:15:59;;;;;;;5.70;1.67;;;;;;;;;;5016234;28;20238;-66
2023/01/12 10:18:29;;;;;;;4.63;1.70;;;;;;;;;;5022579;28;20207;-63
2023/01/12 10:20:57;;;;;;;7.13;2.03;;;;;;;;;;5029632;28;20205;-64
2023/01/12 10:23:26;;;;;;;4.80;2.00;;;;;;;;;;5019223;28;21221;-64
2023/01/12 10:26:06;;;;;;;4.17;1.57;;;;;;;;;;5004888;28;20847;-65
2023/01/12 10:28:35;;;;;;;4.70;1.70;;;;;;;;;;5006626;28;20214;-65
2023/01/12 10:31:03;;;;;;;3.63;1.60;;;;;;;;;;5014382;28;20284;-65
2023/01/12 10:33:33;;;;;;;2.70;1.60;;;;;;;;;;5007370;28;20222;-64
2023/01/12 10:36:02;;;;;;;5.73;2.10;;;;;;;;;;5004335;28;20233;-64
2023/01/12 10:38:36;;;;;;;3.60;1.57;;;;;;;;;;5023250;28;20298;-64
2023/01/12 10:41:09;;;;;;;3.80;1.80;;;;;;;;;;5022292;28;20281;-65
2023/01/12 10:43:37;;;;;;;3.67;1.50;;;;;;;;;;5024277;28;20679;-64
2023/01/12 10:46:07;;;;;;;4.10;1.87;;;;;;;;;;5023838;28;20230;-69
2023/01/12 10:48:38;;;;;;;4.40;1.70;;;;;;;;;;5027173;28;20246;-65
2023/01/12 10:51:07;;;;;;;5.07;3.13;;;;;;;;;;5023972;28;20226;-65
2023/01/12 10:53:43;;;;;;;6.03;1.90;;;;;;;;;;5019801;28;20222;-65
2023/01/12 10:56:23;;;;;;;4.27;1.43;;;;;;;;;;5014719;28;20288;-65
2023/01/12 10:59:08;;;;;;;2.83;1.50;;;;;;;;;;5018201;28;20207;-64
2023/01/12 11:01:47;;;;;;;4.10;1.40;;;;;;;;;;5004841;28;20256;-64
2023/01/12 11:04:18;;;;;;;4.10;1.53;;;;;;;;;;5001414;28;20239;-64
2023/01/12 11:06:55;;;;;;;1.67;1.43;;;;;;;;;;5002437;28;20215;-65
2023/01/12 11:09:27;;;;;;;5.17;2.03;;;;;;;;;;5003598;28;20218;-63
2023/01/12 11:11:56;;;;;;;6.80;1.60;;;;;;;;;;5021249;28;20581;-62
2023/01/12 11:14:31;;;;;;;6.10;1.63;;;;;;;;;;5015980;28;20949;-63
2023/01/12 11:17:17;;;;;;;3.43;1.60;;;;;;;;;;5022502;28;20238;-65
2023/01/12 11:19:45;;;;;;;8.17;1.60;;;;;;;;;;5024154;28;20249;-63
2023/01/12 11:22:16;;;;;;;8.83;2.00;;;;;;;;;;5022151;28;20261;-63
2023/01/12 11:24:51;;;;;;;4.83;1.53;;;;;;;;;;5023916;28;20284;-64
2023/01/12 11:27:26;;;;;;;4.53;1.87;;;;;;;;;;5014410;28;20253;-63
2023/01/12 11:29:53;;;;;;;4.67;1.70;;;;;;;;;;5009620;28;20292;-65
2023/01/12 11:32:33;;;;;;;4.47;1.60;;;;;;;;;;5022366;28;20207;-63
2023/01/12 11:35:06;;;;;;;6.00;1.43;;;;;;;;;;5018065;28;20650;-65
2023/01/12 11:37:35;;;;;;;5.03;1.53;;;;;;;;;;5020299;28;20758;-63
2023/01/12 11:40:07;;;;;;;3.83;2.00;;;;;;;;;;5022325;28;20207;-64
2023/01/12 11:45:25;;;;;;;3.10;1.50;;;;;;;;;;5015397;28;20254;-64
2023/01/12 11:47:54;;;;;;;2.80;1.77;;;;;;;;;;5001813;28;20239;-65
2023/01/12 11:50:25;;;;;;;2.00;1.60;;;;;;;;;;4987557;28;20814;-62
2023/01/12 11:52:54;;;;;;;4.23;2.47;;;;;;;;;;5012148;28;20353;-64
2023/01/12 11:55:29;;;;;;;2.57;2.27;;;;;;;;;;4991148;28;20256;-65
2023/01/12 11:58:00;;;;;;;4.77;2.97;;;;;;;;;;5029443;28;20249;-65
2023/01/12 12:00:32;;;;;;;7.33;3.80;;;;;;;;;;5019493;28;20262;-65
2023/01/12 12:02:59;;;;;;;3.47;2.97;;;;;;;;;;5011443;28;20664;-65
2023/01/12 12:05:32;;;;;;;7.67;4.20;;;;;;;;;;5009513;28;20246;-64
2023/01/12 12:08:11;;;;;;;2.90;2.60;;;;;;;;;;5013932;28;20306;-64
2023/01/12 12:10:58;;;;;;;4.60;1.93;;;;;;;;;;5015096;28;20859;-62
2023/01/12 12:13:28;;;;;;;2.57;1.63;;;;;;;;;;4997700;28;20214;-64
2023/01/12 12:16:04;;;;;;;3.37;1.20;;;;;;;;;;5009170;28;20263;-62
2023/01/12 12:18:38;;;;;;;1.37;1.20;;;;;;;;;;5026763;28;20206;-64
2023/01/12 12:21:21;;;;;;;2.10;1.37;;;;;;;;;;5017540;28;20238;-63
2023/01/12 12:23:51;;;;;;;5.07;1.30;;;;;;;;;;5008505;28;20226;-62
2023/01/12 12:26:23;;;;;;;1.30;1.20;;;;;;;;;;4989735;28;20230;-63
2023/01/12 12:29:13;;;;;;;2.83;1.20;;;;;;;;;;5008363;28;20207;-65
2023/01/12 12:31:41;;;;;;;2.63;1.30;;;;;;;;;;5005332;28;20296;-64
2023/01/12 12:34:11;;;;;;;1.10;1.10;;;;;;;;;;4996558;28;20222;-64
2023/01/12 12:36:58;;;;;;;1.00;1.00;;;;;;;;;;5004368;28;20301;-63
2023/01/12 12:39:44;;;;;;;1.47;1.27;;;;;;;;;;5010096;28;20687;-66
2023/01/12 12:45:15;;;;;;;2.33;1.40;;;;;;;;;;5017763;28;20240;-65
2023/01/12 12:47:52;;;;;;;1.20;1.00;;;;;;;;;;5033055;28;21448;-63
2023/01/12 12:50:20;;;;;;;1.00;1.00;;;;;;;;;;5020141;28;21154;-64
2023/01/12 12:52:51;;;;;;;0.93;0.93;;;;;;;;;;5027480;28;20792;-63
2023/01/12 12:55:19;;;;;;;1.33;1.00;;;;;;;;;;5003604;28;23343;-65
2023/01/12 12:58:00;;;;;;;1.77;1.13;;;;;;;;;;5009971;28;20771;-65
2023/01/12 13:00:29;;;;;;;0.93;0.93;;;;;;;;;;5011082;28;20635;-65
2023/01/12 13:02:58;;;;;;;2.73;1.10;;;;;;;;;;5030732;28;20210;-63
2023/01/12 13:05:46;;;;;;;1.00;1.00;;;;;;;;;;5013004;28;20322;-62
2023/01/12 13:08:18;;;;;;;1.50;1.17;;;;;;;;;;5014557;28;20238;-62
2023/01/12 13:10:54;;;;;;;1.23;0.90;;;;;;;;;;5012799;28;20302;-63
2023/01/12 13:13:29;;;;;;;1.30;1.20;;;;;;;;;;5008721;28;20309;-63
2023/01/12 13:16:17;;;;;;;2.83;1.23;;;;;;;;;;5012857;28;20227;-63
2023/01/12 13:18:50;;;;;;;1.67;1.20;;;;;;;;;;5007018;28;20213;-63
2023/01/12 13:21:37;;;;;;;1.10;1.10;;;;;;;;;;5021688;28;20216;-65
2023/01/12 13:24:09;;;;;;;1.20;1.10;;;;;;;;;;5004099;28;20266;-65
2023/01/12 13:26:38;;;;;;;1.27;1.17;;;;;;;;;;5012307;28;20238;-64
2023/01/12 13:29:23;;;;;;;1.20;1.10;;;;;;;;;;5036354;28;20593;-64
2023/01/12 13:31:52;;;;;;;1.20;1.10;;;;;;;;;;5009000;28;20215;-65
2023/01/12 13:34:31;;;;;;;1.80;1.23;;;;;;;;;;5019966;28;20660;-64
2023/01/12 13:37:05;;;;;;;1.27;1.17;;;;;;;;;;5018775;28;20229;-64
2023/01/12 13:39:35;;;;;;;1.50;0.90;;;;;;;;;;5033765;28;20766;-65
2023/01/12 13:44:49;;;;;;;1.73;0.90;;;;;;;;;;5019413;28;20222;-64
2023/01/12 13:47:22;;;;;;;1.03;1.03;;;;;;;;;;5016623;28;20264;-65
2023/01/12 13:49:52;;;;;;;1.23;1.00;;;;;;;;;;5008943;28;20295;-65
2023/01/12 13:52:34;;;;;;;2.17;1.30;;;;;;;;;;4994332;28;20405;-65
2023/01/12 13:55:02;;;;;;;2.53;1.10;;;;;;;;;;4988306;28;20284;-65
2023/01/12 13:57:30;;;;;;;1.23;1.13;;;;;;;;;;4986295;28;20292;-64
2023/01/12 14:00:13;;;;;;;1.17;1.10;;;;;;;;;;4992434;28;20215;-65
2023/01/12 14:02:41;;;;;;;1.27;1.20;;;;;;;;;;4998361;28;20314;-65
2023/01/12 14:05:17;;;;;;;0.93;0.90;;;;;;;;;;4997872;28;20778;-64
2023/01/12 14:07:57;;;;;;;1.87;1.10;;;;;;;;;;5011429;28;20310;-64
2023/01/12 14:10:31;;;;;;;1.73;1.17;;;;;;;;;;5014612;28;20293;-64
2023/01/12 14:13:13;;;;;;;0.97;0.97;;;;;;;;;;4996762;28;20237;-64
2023/01/12 14:18:44;;;;;;;1.73;1.07;;;;;;;;;;4996477;28;20918;-64
2023/01/12 14:21:20;;;;;;;1.10;1.00;;;;;;;;;;5002190;28;20206;-64
2023/01/12 14:23:48;;;;;;;2.83;1.30;;;;;;;;;;4999724;28;20326;-64
2023/01/12 14:26:21;;;;;;;1.43;1.10;;;;;;;;;;4998581;28;20368;-65
2023/01/12 14:28:50;;;;;;;1.70;1.10;;;;;;;;;;4997585;28;20216;-64
2023/01/12 14:31:26;;;;;;;1.90;1.20;;;;;;;;;;5000449;28;20214;-64
2023/01/12 14:33:55;;;;;;;1.00;1.00;;;;;;;;;;4994319;28;20239;-63
2023/01/12 14:36:25;;;;;;;1.63;1.03;;;;;;;;;;4994920;28;20203;-64
2023/01/12 14:38:54;;;;;;;2.17;1.40;;;;;;;;;;4997290;28;20211;-64
2023/01/12 14:47:22;;;;;;;1.73;1.00;;;;;;;;;;5013844;28;20206;-63
2023/01/12 14:49:50;;;;;;;0.97;0.97;;;;;;;;;;5017943;28;20281;-65
2023/01/12 14:52:31;;;;;;;0.90;0.90;;;;;;;;;;5015349;28;20685;-63
2023/01/12 14:55:17;;;;;;;3.50;1.20;;;;;;;;;;5008632;28;20249;-63
2023/01/12 14:57:50;;;;;;;1.40;0.93;;;;;;;;;;5017548;28;20249;-64
2023/01/12 15:00:22;;;;;;;1.10;1.00;;;;;;;;;;5010913;28;20231;-64
2023/01/12 15:02:50;;;;;;;1.80;1.20;;;;;;;;;;5023218;28;20434;-64
2023/01/12 15:05:32;;;;;;;1.10;1.00;;;;;;;;;;4990008;28;20226;-63
2023/01/12 15:08:01;;;;;;;1.20;1.20;;;;;;;;;;5014856;28;20225;-62
2023/01/12 15:10:31;;;;;;;0.93;0.90;;;;;;;;;;4998785;28;20218;-65
2023/01/12 15:13:16;;;;;;;0.97;0.90;;;;;;;;;;5009847;28;20218;-63
2023/01/12 15:26:58;;;;;;;1.20;1.10;;;;;;;;;;4993948;28;20301;-65
2023/01/12 15:29:33;;;;;;;1.20;1.10;;;;;;;;;;4999156;28;20293;-64
2023/01/12 15:32:00;;;;;;;1.67;1.00;;;;;;;;;;5002722;28;20243;-65
2023/01/12 15:34:28;;;;;;;1.30;1.00;;;;;;;;;;4985657;28;20238;-63
2023/01/12 15:36:55;;;;;;;1.43;0.97;;;;;;;;;;4991152;28;20257;-63
2023/01/12 15:39:23;;;;;;;1.00;1.00;;;;;;;;;;5015910;28;20219;-63
2023/01/12 15:44:37;;;;;;;2.90;1.10;;;;;;;;;;4997528;28;20235;-63
2023/01/12 15:47:06;;;;;;;1.90;1.00;;;;;;;;;;4998927;28;20245;-64
2023/01/12 15:49:33;;;;;;;3.40;1.17;;;;;;;;;;5002614;28;20289;-63
2023/01/12 15:52:01;;;;;;;1.27;1.20;;;;;;;;;;5000542;28;20203;-63
2023/01/12 15:54:28;;;;;;;1.50;1.20;;;;;;;;;;4998305;28;20263;-64
2023/01/12 15:56:58;;;;;;;1.50;1.40;;;;;;;;;;4997894;28;20243;-64
2023/01/12 15:59:25;;;;;;;1.53;1.10;;;;;;;;;;4998652;28;21292;-64
2023/01/12 16:01:53;;;;;;;1.00;1.00;;;;;;;;;;5002926;28;20210;-63
2023/01/12 16:04:21;;;;;;;3.00;2.70;;;;;;;;;;4994652;28;20720;-64
2023/01/12 16:07:09;;;;;;;3.23;1.73;;;;;;;;;;4997601;28;20208;-64